Weichang, China
Current Conditions -  °F | °C
As of 1:30 AM on Saturday 01 Nov 2014 (Local Time) from ZBAA Reporting Station
Haze Haze  
Wind Chill:   Ceiling: Unl
Heat Index:   Visibility: 1.2mi
Dew Point:   Wind: 2mph
Humidity: 100%   Direction: NA
Pressure: 30.12"   Gusts: NA
Location:  41.93°N, 117.75°E
Report Text: ZBAA 311730Z VRB01MPS 2000 R01/1000V1500NR36R/P2000NR36L/1700U BR NSC 08/08 Q1020 NOSIG
Loading
Personal Weather Stations






























Interactive Weather Map
Tropical Storm Tracking
New forecast layout! Learn more

10-Day Weather Forecast

Advertisements
Track Severe Weather on mobile